sensor_id;sensor_type;location;lat;lon;timestamp;temperature;humidity
15156;DHT22;7678;50.058;8.306;2022-08-30T00:01:23;17.60;84.00
15156;DHT22;7678;50.058;8.306;2022-08-30T00:03:51;17.70;84.20
15156;DHT22;7678;50.058;8.306;2022-08-30T00:06:22;17.60;83.00
15156;DHT22;7678;50.058;8.306;2022-08-30T00:08:51;17.50;82.80
15156;DHT22;7678;50.058;8.306;2022-08-30T00:11:21;17.50;81.30
15156;DHT22;7678;50.058;8.306;2022-08-30T00:13:51;17.50;81.10
15156;DHT22;7678;50.058;8.306;2022-08-30T00:16:21;17.50;82.90
15156;DHT22;7678;50.058;8.306;2022-08-30T00:18:50;17.60;82.80
15156;DHT22;7678;50.058;8.306;2022-08-30T00:21:18;17.60;82.80
15156;DHT22;7678;50.058;8.306;2022-08-30T00:23:47;17.60;83.70
15156;DHT22;7678;50.058;8.306;2022-08-30T00:26:15;17.50;83.30
15156;DHT22;7678;50.058;8.306;2022-08-30T00:28:43;17.50;83.10
15156;DHT22;7678;50.058;8.306;2022-08-30T00:31:11;17.50;83.80
15156;DHT22;7678;50.058;8.306;2022-08-30T00:33:41;17.50;80.70
15156;DHT22;7678;50.058;8.306;2022-08-30T00:36:10;17.60;82.20
15156;DHT22;7678;50.058;8.306;2022-08-30T00:38:38;17.60;82.00
15156;DHT22;7678;50.058;8.306;2022-08-30T00:41:07;17.70;81.90
15156;DHT22;7678;50.058;8.306;2022-08-30T00:43:36;17.70;83.10
15156;DHT22;7678;50.058;8.306;2022-08-30T00:46:05;17.80;82.20
15156;DHT22;7678;50.058;8.306;2022-08-30T00:48:39;17.60;80.90
15156;DHT22;7678;50.058;8.306;2022-08-30T00:51:10;17.50;82.10
15156;DHT22;7678;50.058;8.306;2022-08-30T00:53:43;17.60;80.20
15156;DHT22;7678;50.058;8.306;2022-08-30T00:56:13;17.50;79.40
15156;DHT22;7678;50.058;8.306;2022-08-30T00:58:44;17.30;80.30
15156;DHT22;7678;50.058;8.306;2022-08-30T01:01:13;17.20;80.50
15156;DHT22;7678;50.058;8.306;2022-08-30T01:03:42;17.20;81.60
15156;DHT22;7678;50.058;8.306;2022-08-30T01:06:12;17.40;82.90
15156;DHT22;7678;50.058;8.306;2022-08-30T01:08:41;17.40;83.20
15156;DHT22;7678;50.058;8.306;2022-08-30T01:11:12;17.50;83.80
15156;DHT22;7678;50.058;8.306;2022-08-30T01:13:42;17.40;80.60
15156;DHT22;7678;50.058;8.306;2022-08-30T01:16:11;17.20;80.40
15156;DHT22;7678;50.058;8.306;2022-08-30T01:18:41;17.10;79.80
15156;DHT22;7678;50.058;8.306;2022-08-30T01:21:16;16.90;82.60
15156;DHT22;7678;50.058;8.306;2022-08-30T01:23:50;16.90;83.20
15156;DHT22;7678;50.058;8.306;2022-08-30T01:26:21;16.80;84.90
15156;DHT22;7678;50.058;8.306;2022-08-30T01:28:52;16.70;85.80
15156;DHT22;7678;50.058;8.306;2022-08-30T01:31:21;16.60;89.10
15156;DHT22;7678;50.058;8.306;2022-08-30T01:33:49;16.60;88.90
15156;DHT22;7678;50.058;8.306;2022-08-30T01:36:19;16.80;89.30
15156;DHT22;7678;50.058;8.306;2022-08-30T01:38:49;16.90;86.70
15156;DHT22;7678;50.058;8.306;2022-08-30T01:41:21;16.80;87.40
15156;DHT22;7678;50.058;8.306;2022-08-30T01:43:51;17.00;87.50
15156;DHT22;7678;50.058;8.306;2022-08-30T01:46:21;17.00;85.70
15156;DHT22;7678;50.058;8.306;2022-08-30T01:48:51;17.00;84.60
15156;DHT22;7678;50.058;8.306;2022-08-30T01:51:22;16.90;85.20
15156;DHT22;7678;50.058;8.306;2022-08-30T01:53:52;16.70;85.40
15156;DHT22;7678;50.058;8.306;2022-08-30T01:56:21;16.60;85.00
15156;DHT22;7678;50.058;8.306;2022-08-30T01:58:50;16.60;87.90
15156;DHT22;7678;50.058;8.306;2022-08-30T02:01:21;16.70;88.50
15156;DHT22;7678;50.058;8.306;2022-08-30T02:03:51;16.80;88.90
15156;DHT22;7678;50.058;8.306;2022-08-30T02:06:22;16.70;89.80
15156;DHT22;7678;50.058;8.306;2022-08-30T02:08:51;16.60;89.70
15156;DHT22;7678;50.058;8.306;2022-08-30T02:11:19;16.70;89.20
15156;DHT22;7678;50.058;8.306;2022-08-30T02:13:47;16.70;89.00
15156;DHT22;7678;50.058;8.306;2022-08-30T02:16:18;16.80;88.10
15156;DHT22;7678;50.058;8.306;2022-08-30T02:18:49;16.80;87.80
15156;DHT22;7678;50.058;8.306;2022-08-30T02:21:17;16.70;89.00
15156;DHT22;7678;50.058;8.306;2022-08-30T02:23:45;16.50;87.50
15156;DHT22;7678;50.058;8.306;2022-08-30T02:26:15;16.40;87.70
15156;DHT22;7678;50.058;8.306;2022-08-30T02:28:44;16.40;87.00
15156;DHT22;7678;50.058;8.306;2022-08-30T02:31:16;16.40;86.50
15156;DHT22;7678;50.058;8.306;2022-08-30T02:33:47;16.30;88.90
15156;DHT22;7678;50.058;8.306;2022-08-30T02:36:16;16.40;87.30
15156;DHT22;7678;50.058;8.306;2022-08-30T02:38:45;16.50;86.40
15156;DHT22;7678;50.058;8.306;2022-08-30T02:41:15;16.40;86.50
15156;DHT22;7678;50.058;8.306;2022-08-30T02:43:43;16.30;85.50
15156;DHT22;7678;50.058;8.306;2022-08-30T02:46:12;16.30;89.90
15156;DHT22;7678;50.058;8.306;2022-08-30T02:48:40;16.10;90.70
15156;DHT22;7678;50.058;8.306;2022-08-30T02:51:10;16.10;90.40
15156;DHT22;7678;50.058;8.306;2022-08-30T02:53:40;16.00;91.50
15156;DHT22;7678;50.058;8.306;2022-08-30T02:56:10;15.90;91.60
15156;DHT22;7678;50.058;8.306;2022-08-30T02:58:40;16.00;89.50
15156;DHT22;7678;50.058;8.306;2022-08-30T03:01:10;16.20;88.40
15156;DHT22;7678;50.058;8.306;2022-08-30T03:03:39;16.20;87.90
15156;DHT22;7678;50.058;8.306;2022-08-30T03:06:08;16.30;85.50
15156;DHT22;7678;50.058;8.306;2022-08-30T03:08:37;16.50;85.00
15156;DHT22;7678;50.058;8.306;2022-08-30T03:11:05;16.50;87.30
15156;DHT22;7678;50.058;8.306;2022-08-30T03:13:33;16.50;85.50
15156;DHT22;7678;50.058;8.306;2022-08-30T03:16:03;16.40;86.90
15156;DHT22;7678;50.058;8.306;2022-08-30T03:18:31;16.50;85.00
15156;DHT22;7678;50.058;8.306;2022-08-30T03:20:59;16.60;84.10
15156;DHT22;7678;50.058;8.306;2022-08-30T03:23:28;16.60;85.30
15156;DHT22;7678;50.058;8.306;2022-08-30T03:25:56;16.40;90.00
15156;DHT22;7678;50.058;8.306;2022-08-30T03:28:24;16.30;87.70
15156;DHT22;7678;50.058;8.306;2022-08-30T03:30:52;16.40;87.50
15156;DHT22;7678;50.058;8.306;2022-08-30T03:33:23;16.50;87.30
15156;DHT22;7678;50.058;8.306;2022-08-30T03:35:53;16.40;88.40
15156;DHT22;7678;50.058;8.306;2022-08-30T03:38:21;16.30;91.20
15156;DHT22;7678;50.058;8.306;2022-08-30T03:40:49;16.30;91.50
15156;DHT22;7678;50.058;8.306;2022-08-30T03:43:21;16.20;91.20
15156;DHT22;7678;50.058;8.306;2022-08-30T03:45:49;16.20;91.90
15156;DHT22;7678;50.058;8.306;2022-08-30T03:48:17;16.00;93.00
15156;DHT22;7678;50.058;8.306;2022-08-30T03:50:46;15.70;93.20
15156;DHT22;7678;50.058;8.306;2022-08-30T03:53:15;15.70;94.20
15156;DHT22;7678;50.058;8.306;2022-08-30T03:55:43;15.60;93.50
15156;DHT22;7678;50.058;8.306;2022-08-30T03:58:12;15.40;94.00
15156;DHT22;7678;50.058;8.306;2022-08-30T04:00:45;15.40;95.00
15156;DHT22;7678;50.058;8.306;2022-08-30T04:03:13;15.40;94.60
15156;DHT22;7678;50.058;8.306;2022-08-30T04:05:41;15.30;94.90
15156;DHT22;7678;50.058;8.306;2022-08-30T04:08:11;15.30;94.40
15156;DHT22;7678;50.058;8.306;2022-08-30T04:10:39;15.30;94.30
15156;DHT22;7678;50.058;8.306;2022-08-30T04:13:07;15.40;94.10
15156;DHT22;7678;50.058;8.306;2022-08-30T04:15:35;15.20;95.00
15156;DHT22;7678;50.058;8.306;2022-08-30T04:18:04;15.30;94.90
15156;DHT22;7678;50.058;8.306;2022-08-30T04:20:32;15.40;94.50
15156;DHT22;7678;50.058;8.306;2022-08-30T04:23:00;15.30;95.30
15156;DHT22;7678;50.058;8.306;2022-08-30T04:25:30;15.40;95.00
15156;DHT22;7678;50.058;8.306;2022-08-30T04:27:58;15.50;95.90
15156;DHT22;7678;50.058;8.306;2022-08-30T04:30:26;15.40;95.40
15156;DHT22;7678;50.058;8.306;2022-08-30T04:32:54;15.30;96.20
15156;DHT22;7678;50.058;8.306;2022-08-30T04:35:24;15.20;96.10
15156;DHT22;7678;50.058;8.306;2022-08-30T04:37:53;15.30;96.80
15156;DHT22;7678;50.058;8.306;2022-08-30T04:40:21;15.40;96.10
15156;DHT22;7678;50.058;8.306;2022-08-30T04:42:51;15.50;96.60
15156;DHT22;7678;50.058;8.306;2022-08-30T04:45:21;15.40;96.50
15156;DHT22;7678;50.058;8.306;2022-08-30T04:47:49;15.30;96.70
15156;DHT22;7678;50.058;8.306;2022-08-30T04:50:19;15.30;97.80
15156;DHT22;7678;50.058;8.306;2022-08-30T04:52:47;15.50;97.20
15156;DHT22;7678;50.058;8.306;2022-08-30T04:55:15;15.60;96.40
15156;DHT22;7678;50.058;8.306;2022-08-30T04:57:46;15.50;96.20
15156;DHT22;7678;50.058;8.306;2022-08-30T05:00:17;15.40;97.10
15156;DHT22;7678;50.058;8.306;2022-08-30T05:02:46;15.40;97.20
15156;DHT22;7678;50.058;8.306;2022-08-30T05:05:14;15.30;98.10
15156;DHT22;7678;50.058;8.306;2022-08-30T05:08:00;15.30;97.50
15156;DHT22;7678;50.058;8.306;2022-08-30T05:10:28;15.40;97.20
15156;DHT22;7678;50.058;8.306;2022-08-30T05:12:56;15.30;97.90
15156;DHT22;7678;50.058;8.306;2022-08-30T05:15:27;15.50;96.20
15156;DHT22;7678;50.058;8.306;2022-08-30T05:17:55;15.60;96.30
15156;DHT22;7678;50.058;8.306;2022-08-30T05:20:23;15.70;95.50
15156;DHT22;7678;50.058;8.306;2022-08-30T05:22:51;15.90;95.90
15156;DHT22;7678;50.058;8.306;2022-08-30T05:25:22;15.90;96.70
15156;DHT22;7678;50.058;8.306;2022-08-30T05:27:51;16.10;96.40
15156;DHT22;7678;50.058;8.306;2022-08-30T05:30:20;16.20;95.70
15156;DHT22;7678;50.058;8.306;2022-08-30T05:32:50;16.20;95.00
15156;DHT22;7678;50.058;8.306;2022-08-30T05:35:19;16.30;94.40
15156;DHT22;7678;50.058;8.306;2022-08-30T05:37:52;16.40;95.30
15156;DHT22;7678;50.058;8.306;2022-08-30T05:40:20;16.30;96.20
15156;DHT22;7678;50.058;8.306;2022-08-30T05:42:49;16.30;97.30
15156;DHT22;7678;50.058;8.306;2022-08-30T05:45:19;16.30;96.10
15156;DHT22;7678;50.058;8.306;2022-08-30T05:47:47;16.40;97.40
15156;DHT22;7678;50.058;8.306;2022-08-30T05:50:16;16.60;96.90
15156;DHT22;7678;50.058;8.306;2022-08-30T05:52:45;16.70;95.50
15156;DHT22;7678;50.058;8.306;2022-08-30T05:55:13;16.80;96.90
15156;DHT22;7678;50.058;8.306;2022-08-30T05:57:41;16.90;95.20
15156;DHT22;7678;50.058;8.306;2022-08-30T06:00:12;17.00;95.00
15156;DHT22;7678;50.058;8.306;2022-08-30T06:02:40;17.10;94.50
15156;DHT22;7678;50.058;8.306;2022-08-30T06:05:10;17.20;95.00
15156;DHT22;7678;50.058;8.306;2022-08-30T06:07:42;17.30;95.00
15156;DHT22;7678;50.058;8.306;2022-08-30T06:10:10;17.40;95.40
15156;DHT22;7678;50.058;8.306;2022-08-30T06:12:40;17.40;94.50
15156;DHT22;7678;50.058;8.306;2022-08-30T06:15:09;17.50;92.90
15156;DHT22;7678;50.058;8.306;2022-08-30T06:17:38;17.60;93.50
15156;DHT22;7678;50.058;8.306;2022-08-30T06:20:07;17.70;92.30
15156;DHT22;7678;50.058;8.306;2022-08-30T06:22:35;17.80;92.10
15156;DHT22;7678;50.058;8.306;2022-08-30T06:25:07;17.90;92.50
15156;DHT22;7678;50.058;8.306;2022-08-30T06:27:35;18.10;90.70
15156;DHT22;7678;50.058;8.306;2022-08-30T06:30:06;18.30;90.30
15156;DHT22;7678;50.058;8.306;2022-08-30T06:32:37;18.40;90.40
15156;DHT22;7678;50.058;8.306;2022-08-30T06:35:06;18.50;91.60
15156;DHT22;7678;50.058;8.306;2022-08-30T06:37:34;18.50;91.00
15156;DHT22;7678;50.058;8.306;2022-08-30T06:40:03;18.60;89.30
15156;DHT22;7678;50.058;8.306;2022-08-30T06:42:33;18.70;88.00
15156;DHT22;7678;50.058;8.306;2022-08-30T06:45:02;18.80;86.40
15156;DHT22;7678;50.058;8.306;2022-08-30T06:47:37;18.90;87.10
15156;DHT22;7678;50.058;8.306;2022-08-30T06:50:06;18.90;85.80
15156;DHT22;7678;50.058;8.306;2022-08-30T06:52:38;19.00;87.40
15156;DHT22;7678;50.058;8.306;2022-08-30T06:55:08;19.00;84.50
15156;DHT22;7678;50.058;8.306;2022-08-30T06:57:38;19.10;83.90
15156;DHT22;7678;50.058;8.306;2022-08-30T07:00:09;19.30;82.70
15156;DHT22;7678;50.058;8.306;2022-08-30T07:02:38;19.40;83.00
15156;DHT22;7678;50.058;8.306;2022-08-30T07:05:08;19.40;86.30
15156;DHT22;7678;50.058;8.306;2022-08-30T07:07:43;19.40;82.50
15156;DHT22;7678;50.058;8.306;2022-08-30T07:10:12;19.50;80.90
15156;DHT22;7678;50.058;8.306;2022-08-30T07:12:41;19.80;82.30
15156;DHT22;7678;50.058;8.306;2022-08-30T07:15:10;20.00;77.90
15156;DHT22;7678;50.058;8.306;2022-08-30T07:17:46;20.20;77.20
15156;DHT22;7678;50.058;8.306;2022-08-30T07:20:48;20.40;72.60
15156;DHT22;7678;50.058;8.306;2022-08-30T07:23:16;20.60;71.90
15156;DHT22;7678;50.058;8.306;2022-08-30T07:25:44;20.70;70.20
15156;DHT22;7678;50.058;8.306;2022-08-30T07:28:14;20.50;70.20
15156;DHT22;7678;50.058;8.306;2022-08-30T07:30:42;20.60;69.40
15156;DHT22;7678;50.058;8.306;2022-08-30T07:33:10;20.60;68.80
15156;DHT22;7678;50.058;8.306;2022-08-30T07:35:38;20.60;70.30
15156;DHT22;7678;50.058;8.306;2022-08-30T07:38:06;20.50;72.80
15156;DHT22;7678;50.058;8.306;2022-08-30T07:40:39;20.50;70.60
15156;DHT22;7678;50.058;8.306;2022-08-30T07:43:07;20.50;70.60
15156;DHT22;7678;50.058;8.306;2022-08-30T07:45:37;20.60;71.60
15156;DHT22;7678;50.058;8.306;2022-08-30T07:48:05;20.70;72.00
15156;DHT22;7678;50.058;8.306;2022-08-30T07:50:34;20.80;70.70
15156;DHT22;7678;50.058;8.306;2022-08-30T07:53:02;20.80;73.00
15156;DHT22;7678;50.058;8.306;2022-08-30T07:55:37;21.00;71.30
15156;DHT22;7678;50.058;8.306;2022-08-30T07:58:05;21.00;71.30
15156;DHT22;7678;50.058;8.306;2022-08-30T08:00:33;21.00;72.80
15156;DHT22;7678;50.058;8.306;2022-08-30T08:03:05;21.10;71.50
15156;DHT22;7678;50.058;8.306;2022-08-30T08:05:37;21.40;70.50
15156;DHT22;7678;50.058;8.306;2022-08-30T08:08:05;21.30;67.80
15156;DHT22;7678;50.058;8.306;2022-08-30T08:10:35;21.20;70.30
15156;DHT22;7678;50.058;8.306;2022-08-30T08:13:04;21.20;73.10
15156;DHT22;7678;50.058;8.306;2022-08-30T08:15:32;21.30;69.60
15156;DHT22;7678;50.058;8.306;2022-08-30T08:18:01;21.10;67.30
15156;DHT22;7678;50.058;8.306;2022-08-30T08:20:31;21.10;68.80
15156;DHT22;7678;50.058;8.306;2022-08-30T08:23:00;21.20;67.10
15156;DHT22;7678;50.058;8.306;2022-08-30T08:25:28;21.50;68.00
15156;DHT22;7678;50.058;8.306;2022-08-30T08:27:56;21.40;66.70
15156;DHT22;7678;50.058;8.306;2022-08-30T08:30:24;21.40;67.80
15156;DHT22;7678;50.058;8.306;2022-08-30T08:32:53;21.70;67.90
15156;DHT22;7678;50.058;8.306;2022-08-30T08:35:23;21.60;69.10
15156;DHT22;7678;50.058;8.306;2022-08-30T08:37:52;21.70;67.80
15156;DHT22;7678;50.058;8.306;2022-08-30T08:40:20;21.70;70.80
15156;DHT22;7678;50.058;8.306;2022-08-30T08:42:58;21.80;66.20
15156;DHT22;7678;50.058;8.306;2022-08-30T08:45:37;21.90;67.50
15156;DHT22;7678;50.058;8.306;2022-08-30T08:48:11;22.00;67.00
15156;DHT22;7678;50.058;8.306;2022-08-30T08:50:41;22.10;66.80
15156;DHT22;7678;50.058;8.306;2022-08-30T08:53:34;22.00;64.80
15156;DHT22;7678;50.058;8.306;2022-08-30T08:56:19;22.10;65.80
15156;DHT22;7678;50.058;8.306;2022-08-30T08:58:50;22.30;64.90
15156;DHT22;7678;50.058;8.306;2022-08-30T09:01:26;22.20;64.00
15156;DHT22;7678;50.058;8.306;2022-08-30T09:03:57;22.40;63.10
15156;DHT22;7678;50.058;8.306;2022-08-30T09:06:43;22.40;62.90
15156;DHT22;7678;50.058;8.306;2022-08-30T09:09:15;22.30;61.20
15156;DHT22;7678;50.058;8.306;2022-08-30T09:11:45;22.40;65.20
15156;DHT22;7678;50.058;8.306;2022-08-30T09:14:18;22.40;61.50
15156;DHT22;7678;50.058;8.306;2022-08-30T09:16:52;22.60;59.60
15156;DHT22;7678;50.058;8.306;2022-08-30T09:19:38;22.80;59.60
15156;DHT22;7678;50.058;8.306;2022-08-30T09:22:18;22.80;57.00
15156;DHT22;7678;50.058;8.306;2022-08-30T09:24:52;22.80;58.50
15156;DHT22;7678;50.058;8.306;2022-08-30T09:27:26;22.90;57.40
15156;DHT22;7678;50.058;8.306;2022-08-30T09:29:59;22.90;56.80
15156;DHT22;7678;50.058;8.306;2022-08-30T09:32:31;23.00;56.40
15156;DHT22;7678;50.058;8.306;2022-08-30T09:35:02;23.00;56.70
15156;DHT22;7678;50.058;8.306;2022-08-30T09:37:34;23.10;55.10
15156;DHT22;7678;50.058;8.306;2022-08-30T09:40:12;23.30;56.20
15156;DHT22;7678;50.058;8.306;2022-08-30T09:42:41;23.40;53.80
15156;DHT22;7678;50.058;8.306;2022-08-30T09:45:29;23.60;54.00
15156;DHT22;7678;50.058;8.306;2022-08-30T09:47:58;23.70;51.20
15156;DHT22;7678;50.058;8.306;2022-08-30T09:50:31;23.80;50.70
15156;DHT22;7678;50.058;8.306;2022-08-30T09:53:06;23.70;50.80
15156;DHT22;7678;50.058;8.306;2022-08-30T09:55:58;23.70;50.00
15156;DHT22;7678;50.058;8.306;2022-08-30T09:58:38;23.80;48.60
15156;DHT22;7678;50.058;8.306;2022-08-30T10:01:11;24.00;48.40
15156;DHT22;7678;50.058;8.306;2022-08-30T10:03:45;24.10;48.00
15156;DHT22;7678;50.058;8.306;2022-08-30T10:06:23;24.10;48.20
15156;DHT22;7678;50.058;8.306;2022-08-30T10:09:04;24.30;49.10
15156;DHT22;7678;50.058;8.306;2022-08-30T10:11:41;24.30;48.70
15156;DHT22;7678;50.058;8.306;2022-08-30T10:14:31;24.20;47.50
15156;DHT22;7678;50.058;8.306;2022-08-30T10:17:08;24.60;48.30
15156;DHT22;7678;50.058;8.306;2022-08-30T10:19:52;24.50;49.50
15156;DHT22;7678;50.058;8.306;2022-08-30T10:22:27;24.50;48.80
15156;DHT22;7678;50.058;8.306;2022-08-30T10:25:02;24.50;46.40
15156;DHT22;7678;50.058;8.306;2022-08-30T10:27:39;24.60;45.60
15156;DHT22;7678;50.058;8.306;2022-08-30T10:30:10;24.60;46.40
15156;DHT22;7678;50.058;8.306;2022-08-30T10:32:45;24.50;46.00
15156;DHT22;7678;50.058;8.306;2022-08-30T10:35:17;24.70;47.50
15156;DHT22;7678;50.058;8.306;2022-08-30T10:37:49;25.00;45.50
15156;DHT22;7678;50.058;8.306;2022-08-30T10:40:23;25.20;42.40
15156;DHT22;7678;50.058;8.306;2022-08-30T10:43:20;25.20;44.50
15156;DHT22;7678;50.058;8.306;2022-08-30T10:45:50;24.80;45.80
15156;DHT22;7678;50.058;8.306;2022-08-30T10:48:24;25.10;44.30
15156;DHT22;7678;50.058;8.306;2022-08-30T10:50:57;25.20;44.60
15156;DHT22;7678;50.058;8.306;2022-08-30T10:53:31;25.40;44.10
15156;DHT22;7678;50.058;8.306;2022-08-30T10:56:04;25.50;45.60
15156;DHT22;7678;50.058;8.306;2022-08-30T10:58:36;25.40;45.90
15156;DHT22;7678;50.058;8.306;2022-08-30T11:01:22;25.70;42.10
15156;DHT22;7678;50.058;8.306;2022-08-30T11:04:23;26.10;42.30
15156;DHT22;7678;50.058;8.306;2022-08-30T11:07:01;26.10;41.90
15156;DHT22;7678;50.058;8.306;2022-08-30T11:09:43;25.70;40.50
15156;DHT22;7678;50.058;8.306;2022-08-30T11:12:31;25.70;40.80
15156;DHT22;7678;50.058;8.306;2022-08-30T11:15:12;26.20;40.20
15156;DHT22;7678;50.058;8.306;2022-08-30T11:17:45;26.20;40.40
15156;DHT22;7678;50.058;8.306;2022-08-30T11:20:23;26.20;41.40
15156;DHT22;7678;50.058;8.306;2022-08-30T11:26:03;26.30;41.80
15156;DHT22;7678;50.058;8.306;2022-08-30T11:29:04;26.40;42.20
15156;DHT22;7678;50.058;8.306;2022-08-30T11:31:39;26.80;42.10
15156;DHT22;7678;50.058;8.306;2022-08-30T11:34:10;26.80;40.40
15156;DHT22;7678;50.058;8.306;2022-08-30T11:37:06;26.70;41.00
15156;DHT22;7678;50.058;8.306;2022-08-30T11:39:53;27.00;41.10
15156;DHT22;7678;50.058;8.306;2022-08-30T11:42:35;27.20;40.80
15156;DHT22;7678;50.058;8.306;2022-08-30T11:45:41;27.00;39.00
15156;DHT22;7678;50.058;8.306;2022-08-30T11:51:48;26.60;40.80
15156;DHT22;7678;50.058;8.306;2022-08-30T11:54:53;26.90;41.20
15156;DHT22;7678;50.058;8.306;2022-08-30T11:57:30;27.00;39.60
15156;DHT22;7678;50.058;8.306;2022-08-30T12:00:06;27.40;38.80
15156;DHT22;7678;50.058;8.306;2022-08-30T12:02:50;27.60;38.80
15156;DHT22;7678;50.058;8.306;2022-08-30T12:05:48;27.40;40.00
15156;DHT22;7678;50.058;8.306;2022-08-30T12:08:41;27.40;39.60
15156;DHT22;7678;50.058;8.306;2022-08-30T12:11:51;27.60;36.70
15156;DHT22;7678;50.058;8.306;2022-08-30T12:14:50;27.70;38.90
15156;DHT22;7678;50.058;8.306;2022-08-30T12:17:27;27.70;39.00
15156;DHT22;7678;50.058;8.306;2022-08-30T12:20:21;27.70;38.30
15156;DHT22;7678;50.058;8.306;2022-08-30T12:22:50;27.80;38.70
15156;DHT22;7678;50.058;8.306;2022-08-30T12:25:36;27.90;37.50
15156;DHT22;7678;50.058;8.306;2022-08-30T12:28:09;27.70;36.90
15156;DHT22;7678;50.058;8.306;2022-08-30T12:30:37;28.00;37.00
15156;DHT22;7678;50.058;8.306;2022-08-30T12:33:10;28.10;38.20
15156;DHT22;7678;50.058;8.306;2022-08-30T12:35:41;28.20;37.40
15156;DHT22;7678;50.058;8.306;2022-08-30T12:38:18;28.60;37.30
15156;DHT22;7678;50.058;8.306;2022-08-30T12:40:57;28.80;35.60
15156;DHT22;7678;50.058;8.306;2022-08-30T12:43:29;28.90;36.50
15156;DHT22;7678;50.058;8.306;2022-08-30T12:46:10;28.70;35.90
15156;DHT22;7678;50.058;8.306;2022-08-30T12:48:41;28.20;36.80
15156;DHT22;7678;50.058;8.306;2022-08-30T12:51:29;28.60;37.00
15156;DHT22;7678;50.058;8.306;2022-08-30T12:54:07;28.90;34.60
15156;DHT22;7678;50.058;8.306;2022-08-30T12:56:59;29.00;35.60
15156;DHT22;7678;50.058;8.306;2022-08-30T12:59:50;29.10;34.70
15156;DHT22;7678;50.058;8.306;2022-08-30T13:02:41;29.20;35.00
15156;DHT22;7678;50.058;8.306;2022-08-30T13:05:33;29.00;34.20
15156;DHT22;7678;50.058;8.306;2022-08-30T13:08:14;28.60;35.30
15156;DHT22;7678;50.058;8.306;2022-08-30T13:10:56;28.50;33.30
15156;DHT22;7678;50.058;8.306;2022-08-30T13:13:36;28.80;33.60
15156;DHT22;7678;50.058;8.306;2022-08-30T13:16:20;28.60;34.00
15156;DHT22;7678;50.058;8.306;2022-08-30T13:18:53;29.20;34.70
15156;DHT22;7678;50.058;8.306;2022-08-30T13:21:26;28.90;33.10
15156;DHT22;7678;50.058;8.306;2022-08-30T13:23:57;29.20;33.20
15156;DHT22;7678;50.058;8.306;2022-08-30T13:26:29;29.50;34.70
15156;DHT22;7678;50.058;8.306;2022-08-30T13:29:01;29.30;33.50
15156;DHT22;7678;50.058;8.306;2022-08-30T13:31:29;29.30;36.50
15156;DHT22;7678;50.058;8.306;2022-08-30T13:33:58;29.00;35.20
15156;DHT22;7678;50.058;8.306;2022-08-30T13:36:30;29.20;35.70
15156;DHT22;7678;50.058;8.306;2022-08-30T13:39:01;28.90;35.80
15156;DHT22;7678;50.058;8.306;2022-08-30T13:41:30;28.80;36.40
15156;DHT22;7678;50.058;8.306;2022-08-30T13:44:02;28.70;36.10
15156;DHT22;7678;50.058;8.306;2022-08-30T13:46:43;28.80;36.00
15156;DHT22;7678;50.058;8.306;2022-08-30T13:49:22;29.00;33.80
15156;DHT22;7678;50.058;8.306;2022-08-30T13:52:13;29.50;34.10
15156;DHT22;7678;50.058;8.306;2022-08-30T13:54:48;29.70;33.80
15156;DHT22;7678;50.058;8.306;2022-08-30T13:57:19;29.40;32.90
15156;DHT22;7678;50.058;8.306;2022-08-30T14:00:12;29.30;32.60
15156;DHT22;7678;50.058;8.306;2022-08-30T14:02:43;28.90;33.60
15156;DHT22;7678;50.058;8.306;2022-08-30T14:05:20;29.00;33.40
15156;DHT22;7678;50.058;8.306;2022-08-30T14:08:09;29.20;33.40
15156;DHT22;7678;50.058;8.306;2022-08-30T14:10:58;29.40;32.00
15156;DHT22;7678;50.058;8.306;2022-08-30T14:13:26;29.20;34.40
15156;DHT22;7678;50.058;8.306;2022-08-30T14:15:58;28.90;34.60
15156;DHT22;7678;50.058;8.306;2022-08-30T14:18:47;28.90;34.50
15156;DHT22;7678;50.058;8.306;2022-08-30T14:21:16;28.90;36.50
15156;DHT22;7678;50.058;8.306;2022-08-30T14:23:50;28.80;33.60
15156;DHT22;7678;50.058;8.306;2022-08-30T14:26:21;28.60;34.20
15156;DHT22;7678;50.058;8.306;2022-08-30T14:28:51;28.20;35.90
15156;DHT22;7678;50.058;8.306;2022-08-30T14:31:21;28.20;35.20
15156;DHT22;7678;50.058;8.306;2022-08-30T14:33:50;28.60;34.60
15156;DHT22;7678;50.058;8.306;2022-08-30T14:36:18;28.80;35.00
15156;DHT22;7678;50.058;8.306;2022-08-30T14:38:46;28.40;36.30
15156;DHT22;7678;50.058;8.306;2022-08-30T14:41:15;28.40;34.90
15156;DHT22;7678;50.058;8.306;2022-08-30T14:43:43;28.30;34.90
15156;DHT22;7678;50.058;8.306;2022-08-30T14:46:11;28.10;35.50
15156;DHT22;7678;50.058;8.306;2022-08-30T14:48:41;28.50;35.60
15156;DHT22;7678;50.058;8.306;2022-08-30T14:51:14;28.60;34.30
15156;DHT22;7678;50.058;8.306;2022-08-30T14:53:42;28.60;33.40
15156;DHT22;7678;50.058;8.306;2022-08-30T14:56:14;28.70;33.90
15156;DHT22;7678;50.058;8.306;2022-08-30T14:58:46;29.00;35.20
15156;DHT22;7678;50.058;8.306;2022-08-30T15:01:15;29.20;34.90
15156;DHT22;7678;50.058;8.306;2022-08-30T15:03:45;29.10;33.70
15156;DHT22;7678;50.058;8.306;2022-08-30T15:06:14;29.40;34.40
15156;DHT22;7678;50.058;8.306;2022-08-30T15:08:42;29.40;33.50
15156;DHT22;7678;50.058;8.306;2022-08-30T15:11:16;29.00;33.60
15156;DHT22;7678;50.058;8.306;2022-08-30T15:13:45;28.60;33.20
15156;DHT22;7678;50.058;8.306;2022-08-30T15:16:15;28.70;33.40
15156;DHT22;7678;50.058;8.306;2022-08-30T15:18:46;28.80;33.70
15156;DHT22;7678;50.058;8.306;2022-08-30T15:21:21;28.50;32.40
15156;DHT22;7678;50.058;8.306;2022-08-30T15:23:51;28.50;33.20
15156;DHT22;7678;50.058;8.306;2022-08-30T15:26:19;28.80;33.70
15156;DHT22;7678;50.058;8.306;2022-08-30T15:28:48;29.30;33.20
15156;DHT22;7678;50.058;8.306;2022-08-30T15:31:17;29.10;32.20
15156;DHT22;7678;50.058;8.306;2022-08-30T15:33:47;29.10;34.00
15156;DHT22;7678;50.058;8.306;2022-08-30T15:36:15;28.80;33.70
15156;DHT22;7678;50.058;8.306;2022-08-30T15:38:44;28.70;33.10
15156;DHT22;7678;50.058;8.306;2022-08-30T15:41:12;28.70;34.60
15156;DHT22;7678;50.058;8.306;2022-08-30T15:43:40;28.90;33.60
15156;DHT22;7678;50.058;8.306;2022-08-30T15:46:17;28.90;34.40
15156;DHT22;7678;50.058;8.306;2022-08-30T15:48:51;29.00;34.30
15156;DHT22;7678;50.058;8.306;2022-08-30T15:51:21;28.70;33.00
15156;DHT22;7678;50.058;8.306;2022-08-30T15:53:50;28.30;34.60
15156;DHT22;7678;50.058;8.306;2022-08-30T15:56:19;28.10;33.30
15156;DHT22;7678;50.058;8.306;2022-08-30T15:58:47;28.20;33.70
15156;DHT22;7678;50.058;8.306;2022-08-30T16:01:19;28.10;35.10
15156;DHT22;7678;50.058;8.306;2022-08-30T16:03:58;28.10;34.90
15156;DHT22;7678;50.058;8.306;2022-08-30T16:06:29;28.10;35.10
15156;DHT22;7678;50.058;8.306;2022-08-30T16:08:57;28.20;34.80
15156;DHT22;7678;50.058;8.306;2022-08-30T16:11:25;28.00;35.20
15156;DHT22;7678;50.058;8.306;2022-08-30T16:13:55;28.00;35.80
15156;DHT22;7678;50.058;8.306;2022-08-30T16:16:23;28.10;34.90
15156;DHT22;7678;50.058;8.306;2022-08-30T16:18:52;28.20;35.80
15156;DHT22;7678;50.058;8.306;2022-08-30T16:21:26;28.10;36.20
15156;DHT22;7678;50.058;8.306;2022-08-30T16:23:56;28.00;34.70
15156;DHT22;7678;50.058;8.306;2022-08-30T16:26:24;27.90;35.40